sensor_id;sensor_type;location;lat;lon;timestamp;P1;durP1;ratioP1;P2;durP2;ratioP2
27999;SDS011;15328;50.860;10.562;2022-12-07T00:04:21;8.85;;;4.65;;
27999;SDS011;15328;50.860;10.562;2022-12-07T00:09:22;10.53;;;5.63;;
27999;SDS011;15328;50.860;10.562;2022-12-07T00:14:22;7.95;;;5.05;;
27999;SDS011;15328;50.860;10.562;2022-12-07T00:19:22;9.77;;;5.33;;
27999;SDS011;15328;50.860;10.562;2022-12-07T00:24:23;8.65;;;5.22;;
27999;SDS011;15328;50.860;10.562;2022-12-07T00:29:23;7.70;;;4.85;;
27999;SDS011;15328;50.860;10.562;2022-12-07T00:34:24;8.25;;;5.05;;
27999;SDS011;15328;50.860;10.562;2022-12-07T00:39:24;7.13;;;4.55;;
27999;SDS011;15328;50.860;10.562;2022-12-07T00:44:24;6.82;;;4.60;;
27999;SDS011;15328;50.860;10.562;2022-12-07T00:49:25;7.45;;;4.45;;
27999;SDS011;15328;50.860;10.562;2022-12-07T00:54:25;7.60;;;4.73;;
27999;SDS011;15328;50.860;10.562;2022-12-07T00:59:25;6.93;;;4.00;;
27999;SDS011;15328;50.860;10.562;2022-12-07T01:04:26;5.80;;;3.80;;
27999;SDS011;15328;50.860;10.562;2022-12-07T01:09:26;5.63;;;3.50;;
27999;SDS011;15328;50.860;10.562;2022-12-07T01:14:26;5.47;;;3.63;;
27999;SDS011;15328;50.860;10.562;2022-12-07T01:19:27;6.70;;;3.80;;
27999;SDS011;15328;50.860;10.562;2022-12-07T01:24:27;6.87;;;4.63;;
27999;SDS011;15328;50.860;10.562;2022-12-07T01:29:27;7.07;;;4.78;;
27999;SDS011;15328;50.860;10.562;2022-12-07T01:34:28;10.20;;;5.72;;
27999;SDS011;15328;50.860;10.562;2022-12-07T01:39:28;8.18;;;5.40;;
27999;SDS011;15328;50.860;10.562;2022-12-07T01:44:29;7.78;;;5.07;;
27999;SDS011;15328;50.860;10.562;2022-12-07T01:49:41;11.27;;;5.53;;
27999;SDS011;15328;50.860;10.562;2022-12-07T01:54:45;8.18;;;5.28;;
27999;SDS011;15328;50.860;10.562;2022-12-07T01:59:49;9.15;;;5.22;;
27999;SDS011;15328;50.860;10.562;2022-12-07T02:04:52;8.35;;;4.85;;
27999;SDS011;15328;50.860;10.562;2022-12-07T02:09:54;7.35;;;4.50;;
27999;SDS011;15328;50.860;10.562;2022-12-07T02:14:54;6.25;;;4.00;;
27999;SDS011;15328;50.860;10.562;2022-12-07T02:30:35;7.72;;;4.93;;
27999;SDS011;15328;50.860;10.562;2022-12-07T02:35:44;10.38;;;5.93;;
27999;SDS011;15328;50.860;10.562;2022-12-07T02:40:55;9.90;;;6.18;;
27999;SDS011;15328;50.860;10.562;2022-12-07T02:46:10;9.15;;;5.90;;
27999;SDS011;15328;50.860;10.562;2022-12-07T02:51:17;9.30;;;5.68;;
27999;SDS011;15328;50.860;10.562;2022-12-07T03:06:28;10.23;;;6.55;;
27999;SDS011;15328;50.860;10.562;2022-12-07T03:12:00;9.40;;;5.43;;
27999;SDS011;15328;50.860;10.562;2022-12-07T03:17:06;8.13;;;4.68;;
27999;SDS011;15328;50.860;10.562;2022-12-07T03:22:12;6.95;;;4.68;;
27999;SDS011;15328;50.860;10.562;2022-12-07T03:32:20;10.45;;;6.25;;
27999;SDS011;15328;50.860;10.562;2022-12-07T03:37:29;11.43;;;7.18;;
27999;SDS011;15328;50.860;10.562;2022-12-07T03:42:34;11.90;;;6.97;;
27999;SDS011;15328;50.860;10.562;2022-12-07T03:47:48;14.00;;;8.65;;
27999;SDS011;15328;50.860;10.562;2022-12-07T03:53:00;13.07;;;8.23;;
27999;SDS011;15328;50.860;10.562;2022-12-07T03:58:09;11.70;;;7.32;;
27999;SDS011;15328;50.860;10.562;2022-12-07T04:03:14;12.07;;;7.55;;
27999;SDS011;15328;50.860;10.562;2022-12-07T04:08:14;10.50;;;6.25;;
27999;SDS011;15328;50.860;10.562;2022-12-07T04:13:15;8.63;;;5.60;;
27999;SDS011;15328;50.860;10.562;2022-12-07T04:18:15;9.27;;;5.73;;
27999;SDS011;15328;50.860;10.562;2022-12-07T04:23:15;8.07;;;5.15;;
27999;SDS011;15328;50.860;10.562;2022-12-07T04:28:15;7.83;;;4.90;;
27999;SDS011;15328;50.860;10.562;2022-12-07T04:33:16;8.67;;;5.53;;
27999;SDS011;15328;50.860;10.562;2022-12-07T04:38:16;8.90;;;5.57;;
27999;SDS011;15328;50.860;10.562;2022-12-07T04:43:16;8.83;;;5.97;;
27999;SDS011;15328;50.860;10.562;2022-12-07T04:48:17;9.37;;;6.37;;
27999;SDS011;15328;50.860;10.562;2022-12-07T04:53:17;9.87;;;6.07;;
27999;SDS011;15328;50.860;10.562;2022-12-07T04:58:18;7.90;;;5.20;;
27999;SDS011;15328;50.860;10.562;2022-12-07T05:03:18;10.63;;;5.70;;
27999;SDS011;15328;50.860;10.562;2022-12-07T05:08:19;9.55;;;6.07;;
27999;SDS011;15328;50.860;10.562;2022-12-07T05:13:19;10.10;;;6.43;;
27999;SDS011;15328;50.860;10.562;2022-12-07T05:18:19;9.38;;;5.95;;
27999;SDS011;15328;50.860;10.562;2022-12-07T05:23:20;10.82;;;6.80;;
27999;SDS011;15328;50.860;10.562;2022-12-07T05:28:20;9.17;;;5.70;;
27999;SDS011;15328;50.860;10.562;2022-12-07T05:33:20;6.20;;;4.10;;
27999;SDS011;15328;50.860;10.562;2022-12-07T05:38:21;5.70;;;3.43;;
27999;SDS011;15328;50.860;10.562;2022-12-07T05:43:21;3.90;;;2.55;;
27999;SDS011;15328;50.860;10.562;2022-12-07T05:48:22;4.30;;;3.00;;
27999;SDS011;15328;50.860;10.562;2022-12-07T05:53:22;4.15;;;2.88;;
27999;SDS011;15328;50.860;10.562;2022-12-07T05:58:22;6.68;;;4.75;;
27999;SDS011;15328;50.860;10.562;2022-12-07T06:03:41;8.88;;;5.05;;
27999;SDS011;15328;50.860;10.562;2022-12-07T06:08:42;8.40;;;4.97;;
27999;SDS011;15328;50.860;10.562;2022-12-07T06:13:42;7.10;;;4.53;;
27999;SDS011;15328;50.860;10.562;2022-12-07T06:18:43;8.18;;;5.00;;
27999;SDS011;15328;50.860;10.562;2022-12-07T06:23:43;9.53;;;5.17;;
27999;SDS011;15328;50.860;10.562;2022-12-07T06:28:43;8.60;;;5.82;;
27999;SDS011;15328;50.860;10.562;2022-12-07T06:33:44;8.80;;;5.40;;
27999;SDS011;15328;50.860;10.562;2022-12-07T06:38:44;7.18;;;4.97;;
27999;SDS011;15328;50.860;10.562;2022-12-07T06:43:44;8.27;;;4.60;;
27999;SDS011;15328;50.860;10.562;2022-12-07T06:48:45;6.30;;;4.33;;
27999;SDS011;15328;50.860;10.562;2022-12-07T06:53:45;10.23;;;5.57;;
27999;SDS011;15328;50.860;10.562;2022-12-07T06:58:45;12.25;;;5.60;;
27999;SDS011;15328;50.860;10.562;2022-12-07T07:03:46;8.85;;;4.90;;
27999;SDS011;15328;50.860;10.562;2022-12-07T07:08:47;8.68;;;5.07;;
27999;SDS011;15328;50.860;10.562;2022-12-07T07:13:47;7.70;;;3.90;;
27999;SDS011;15328;50.860;10.562;2022-12-07T07:18:48;4.78;;;3.20;;
27999;SDS011;15328;50.860;10.562;2022-12-07T07:23:48;7.70;;;3.33;;
27999;SDS011;15328;50.860;10.562;2022-12-07T07:28:48;6.60;;;3.10;;
27999;SDS011;15328;50.860;10.562;2022-12-07T07:33:49;6.03;;;3.13;;
27999;SDS011;15328;50.860;10.562;2022-12-07T07:38:49;5.25;;;2.88;;
27999;SDS011;15328;50.860;10.562;2022-12-07T07:43:49;5.47;;;2.97;;
27999;SDS011;15328;50.860;10.562;2022-12-07T07:48:50;6.50;;;3.10;;
27999;SDS011;15328;50.860;10.562;2022-12-07T07:53:50;4.83;;;2.70;;
27999;SDS011;15328;50.860;10.562;2022-12-07T07:58:53;6.43;;;2.70;;
27999;SDS011;15328;50.860;10.562;2022-12-07T08:03:54;4.45;;;2.45;;
27999;SDS011;15328;50.860;10.562;2022-12-07T08:08:54;6.97;;;2.58;;
27999;SDS011;15328;50.860;10.562;2022-12-07T08:13:54;8.43;;;4.80;;
27999;SDS011;15328;50.860;10.562;2022-12-07T08:18:55;9.15;;;4.70;;
27999;SDS011;15328;50.860;10.562;2022-12-07T08:23:56;9.43;;;4.97;;
27999;SDS011;15328;50.860;10.562;2022-12-07T08:28:57;5.18;;;2.80;;
27999;SDS011;15328;50.860;10.562;2022-12-07T08:33:57;7.45;;;3.65;;
27999;SDS011;15328;50.860;10.562;2022-12-07T08:38:58;5.50;;;2.85;;
27999;SDS011;15328;50.860;10.562;2022-12-07T08:43:58;5.63;;;3.20;;
27999;SDS011;15328;50.860;10.562;2022-12-07T08:49:01;6.63;;;2.63;;
27999;SDS011;15328;50.860;10.562;2022-12-07T08:54:05;8.70;;;4.20;;
27999;SDS011;15328;50.860;10.562;2022-12-07T08:59:09;6.75;;;3.75;;
27999;SDS011;15328;50.860;10.562;2022-12-07T09:04:10;8.13;;;3.67;;
27999;SDS011;15328;50.860;10.562;2022-12-07T09:09:11;7.70;;;3.60;;
27999;SDS011;15328;50.860;10.562;2022-12-07T09:14:13;6.20;;;3.25;;
27999;SDS011;15328;50.860;10.562;2022-12-07T09:19:13;12.68;;;4.10;;
27999;SDS011;15328;50.860;10.562;2022-12-07T09:24:14;6.70;;;3.38;;
27999;SDS011;15328;50.860;10.562;2022-12-07T09:29:14;8.38;;;3.45;;
27999;SDS011;15328;50.860;10.562;2022-12-07T09:34:14;5.10;;;3.03;;
27999;SDS011;15328;50.860;10.562;2022-12-07T09:39:15;4.95;;;2.80;;
27999;SDS011;15328;50.860;10.562;2022-12-07T09:44:21;4.70;;;2.80;;
27999;SDS011;15328;50.860;10.562;2022-12-07T09:49:25;6.38;;;2.90;;
27999;SDS011;15328;50.860;10.562;2022-12-07T09:54:31;4.03;;;2.20;;
27999;SDS011;15328;50.860;10.562;2022-12-07T09:59:36;6.43;;;2.58;;
27999;SDS011;15328;50.860;10.562;2022-12-07T10:04:37;5.37;;;2.40;;
27999;SDS011;15328;50.860;10.562;2022-12-07T10:09:37;5.10;;;2.60;;
27999;SDS011;15328;50.860;10.562;2022-12-07T10:14:39;5.53;;;2.63;;
27999;SDS011;15328;50.860;10.562;2022-12-07T10:25:32;4.03;;;2.40;;
27999;SDS011;15328;50.860;10.562;2022-12-07T10:35:49;5.07;;;2.10;;
27999;SDS011;15328;50.860;10.562;2022-12-07T10:40:49;3.23;;;2.10;;
27999;SDS011;15328;50.860;10.562;2022-12-07T10:51:34;4.40;;;2.30;;
27999;SDS011;15328;50.860;10.562;2022-12-07T10:56:52;4.18;;;2.55;;
27999;SDS011;15328;50.860;10.562;2022-12-07T11:33:29;5.80;;;1.52;;
27999;SDS011;15328;50.860;10.562;2022-12-07T11:54:31;2.65;;;1.38;;
27999;SDS011;15328;50.860;10.562;2022-12-07T11:59:38;7.47;;;1.80;;
27999;SDS011;15328;50.860;10.562;2022-12-07T12:10:24;2.40;;;1.13;;
27999;SDS011;15328;50.860;10.562;2022-12-07T12:20:55;3.47;;;1.40;;
27999;SDS011;15328;50.860;10.562;2022-12-07T12:26:05;4.97;;;1.70;;
27999;SDS011;15328;50.860;10.562;2022-12-07T12:31:16;3.40;;;1.20;;
27999;SDS011;15328;50.860;10.562;2022-12-07T12:46:49;4.10;;;1.48;;
27999;SDS011;15328;50.860;10.562;2022-12-07T12:57:28;3.55;;;1.38;;
27999;SDS011;15328;50.860;10.562;2022-12-07T13:02:32;3.42;;;1.45;;
27999;SDS011;15328;50.860;10.562;2022-12-07T13:17:57;2.95;;;1.00;;
27999;SDS011;15328;50.860;10.562;2022-12-07T13:23:00;3.83;;;1.40;;
27999;SDS011;15328;50.860;10.562;2022-12-07T13:28:02;2.78;;;1.40;;
27999;SDS011;15328;50.860;10.562;2022-12-07T13:33:12;3.33;;;1.20;;
27999;SDS011;15328;50.860;10.562;2022-12-07T13:38:26;4.28;;;1.30;;
27999;SDS011;15328;50.860;10.562;2022-12-07T13:43:29;3.95;;;1.20;;
27999;SDS011;15328;50.860;10.562;2022-12-07T13:48:31;5.35;;;1.10;;
27999;SDS011;15328;50.860;10.562;2022-12-07T13:53:32;5.43;;;2.10;;
27999;SDS011;15328;50.860;10.562;2022-12-07T13:58:33;2.47;;;1.20;;
27999;SDS011;15328;50.860;10.562;2022-12-07T14:03:34;3.33;;;1.20;;
27999;SDS011;15328;50.860;10.562;2022-12-07T14:08:36;2.15;;;1.10;;
27999;SDS011;15328;50.860;10.562;2022-12-07T14:13:37;3.70;;;1.17;;
27999;SDS011;15328;50.860;10.562;2022-12-07T14:18:41;5.45;;;1.85;;
27999;SDS011;15328;50.860;10.562;2022-12-07T14:23:41;2.50;;;1.48;;
27999;SDS011;15328;50.860;10.562;2022-12-07T14:28:43;4.28;;;1.40;;
27999;SDS011;15328;50.860;10.562;2022-12-07T14:33:44;4.60;;;1.10;;
27999;SDS011;15328;50.860;10.562;2022-12-07T14:38:44;3.38;;;1.20;;
27999;SDS011;15328;50.860;10.562;2022-12-07T14:43:45;2.42;;;0.95;;
27999;SDS011;15328;50.860;10.562;2022-12-07T14:48:45;3.30;;;0.80;;
27999;SDS011;15328;50.860;10.562;2022-12-07T14:53:48;3.50;;;0.80;;
27999;SDS011;15328;50.860;10.562;2022-12-07T14:58:50;5.18;;;1.13;;
27999;SDS011;15328;50.860;10.562;2022-12-07T15:03:51;2.70;;;1.02;;
27999;SDS011;15328;50.860;10.562;2022-12-07T15:08:51;3.27;;;1.10;;
27999;SDS011;15328;50.860;10.562;2022-12-07T15:13:52;3.15;;;1.02;;
27999;SDS011;15328;50.860;10.562;2022-12-07T15:19:15;5.78;;;1.30;;
27999;SDS011;15328;50.860;10.562;2022-12-07T15:24:23;6.20;;;1.58;;
27999;SDS011;15328;50.860;10.562;2022-12-07T15:29:25;2.25;;;1.30;;
27999;SDS011;15328;50.860;10.562;2022-12-07T15:34:25;5.00;;;1.90;;
27999;SDS011;15328;50.860;10.562;2022-12-07T15:39:28;3.05;;;1.60;;
27999;SDS011;15328;50.860;10.562;2022-12-07T15:44:28;5.93;;;2.10;;
27999;SDS011;15328;50.860;10.562;2022-12-07T15:54:47;5.97;;;1.88;;
27999;SDS011;15328;50.860;10.562;2022-12-07T15:59:47;4.63;;;1.80;;
27999;SDS011;15328;50.860;10.562;2022-12-07T16:04:48;4.30;;;1.77;;
27999;SDS011;15328;50.860;10.562;2022-12-07T16:09:48;3.80;;;1.98;;
27999;SDS011;15328;50.860;10.562;2022-12-07T16:14:49;6.97;;;1.85;;
27999;SDS011;15328;50.860;10.562;2022-12-07T16:19:49;5.53;;;2.33;;
27999;SDS011;15328;50.860;10.562;2022-12-07T16:24:50;5.37;;;2.20;;
27999;SDS011;15328;50.860;10.562;2022-12-07T16:29:50;5.33;;;2.50;;
27999;SDS011;15328;50.860;10.562;2022-12-07T16:34:50;7.77;;;3.40;;
27999;SDS011;15328;50.860;10.562;2022-12-07T16:39:51;7.33;;;2.80;;
27999;SDS011;15328;50.860;10.562;2022-12-07T16:44:51;8.05;;;3.47;;
27999;SDS011;15328;50.860;10.562;2022-12-07T16:49:52;11.23;;;4.35;;
27999;SDS011;15328;50.860;10.562;2022-12-07T16:54:52;11.32;;;5.30;;
27999;SDS011;15328;50.860;10.562;2022-12-07T16:59:53;6.60;;;3.13;;
27999;SDS011;15328;50.860;10.562;2022-12-07T17:04:53;4.97;;;2.53;;
27999;SDS011;15328;50.860;10.562;2022-12-07T17:09:53;3.50;;;1.90;;
27999;SDS011;15328;50.860;10.562;2022-12-07T17:14:54;3.90;;;2.03;;
27999;SDS011;15328;50.860;10.562;2022-12-07T17:20:13;3.15;;;1.15;;
27999;SDS011;15328;50.860;10.562;2022-12-07T17:25:14;5.95;;;2.70;;
27999;SDS011;15328;50.860;10.562;2022-12-07T17:30:15;4.22;;;1.23;;
27999;SDS011;15328;50.860;10.562;2022-12-07T17:35:16;4.55;;;1.50;;
27999;SDS011;15328;50.860;10.562;2022-12-07T17:40:16;7.03;;;1.70;;
27999;SDS011;15328;50.860;10.562;2022-12-07T17:45:16;2.78;;;1.30;;
27999;SDS011;15328;50.860;10.562;2022-12-07T17:50:17;3.63;;;1.90;;
27999;SDS011;15328;50.860;10.562;2022-12-07T17:55:37;17.98;;;5.13;;
27999;SDS011;15328;50.860;10.562;2022-12-07T18:00:39;22.63;;;5.07;;
27999;SDS011;15328;50.860;10.562;2022-12-07T18:05:41;9.23;;;3.40;;
27999;SDS011;15328;50.860;10.562;2022-12-07T18:10:43;31.27;;;9.32;;
27999;SDS011;15328;50.860;10.562;2022-12-07T18:15:43;16.20;;;4.53;;
27999;SDS011;15328;50.860;10.562;2022-12-07T18:20:44;12.85;;;4.22;;
27999;SDS011;15328;50.860;10.562;2022-12-07T18:25:47;14.68;;;4.70;;
27999;SDS011;15328;50.860;10.562;2022-12-07T18:30:50;12.00;;;4.10;;
27999;SDS011;15328;50.860;10.562;2022-12-07T18:35:51;26.30;;;7.50;;
27999;SDS011;15328;50.860;10.562;2022-12-07T18:40:51;17.15;;;4.72;;
27999;SDS011;15328;50.860;10.562;2022-12-07T18:45:51;11.23;;;4.20;;
27999;SDS011;15328;50.860;10.562;2022-12-07T18:50:59;9.77;;;3.65;;
27999;SDS011;15328;50.860;10.562;2022-12-07T18:56:06;20.02;;;4.75;;
27999;SDS011;15328;50.860;10.562;2022-12-07T19:01:09;14.57;;;4.57;;
27999;SDS011;15328;50.860;10.562;2022-12-07T19:06:09;9.75;;;3.70;;
27999;SDS011;15328;50.860;10.562;2022-12-07T19:11:19;9.40;;;3.55;;
27999;SDS011;15328;50.860;10.562;2022-12-07T19:16:40;5.25;;;2.88;;
27999;SDS011;15328;50.860;10.562;2022-12-07T19:21:41;5.15;;;2.88;;
27999;SDS011;15328;50.860;10.562;2022-12-07T19:26:42;8.77;;;3.03;;
27999;SDS011;15328;50.860;10.562;2022-12-07T19:31:42;9.50;;;3.35;;
27999;SDS011;15328;50.860;10.562;2022-12-07T19:36:43;7.90;;;3.33;;
27999;SDS011;15328;50.860;10.562;2022-12-07T19:41:44;6.75;;;3.42;;
27999;SDS011;15328;50.860;10.562;2022-12-07T19:46:47;8.35;;;3.58;;
27999;SDS011;15328;50.860;10.562;2022-12-07T19:51:52;7.80;;;3.30;;
27999;SDS011;15328;50.860;10.562;2022-12-07T19:56:54;8.73;;;4.32;;
27999;SDS011;15328;50.860;10.562;2022-12-07T20:01:55;11.00;;;4.10;;
27999;SDS011;15328;50.860;10.562;2022-12-07T20:06:56;9.02;;;4.20;;
27999;SDS011;15328;50.860;10.562;2022-12-07T20:11:58;6.85;;;4.18;;
27999;SDS011;15328;50.860;10.562;2022-12-07T20:17:17;8.85;;;5.35;;
27999;SDS011;15328;50.860;10.562;2022-12-07T20:22:17;9.60;;;5.18;;
27999;SDS011;15328;50.860;10.562;2022-12-07T20:27:18;12.25;;;5.18;;
27999;SDS011;15328;50.860;10.562;2022-12-07T20:32:18;11.05;;;4.85;;
27999;SDS011;15328;50.860;10.562;2022-12-07T20:37:18;9.27;;;4.73;;
27999;SDS011;15328;50.860;10.562;2022-12-07T20:42:18;8.73;;;4.60;;
27999;SDS011;15328;50.860;10.562;2022-12-07T20:47:37;8.90;;;4.10;;
27999;SDS011;15328;50.860;10.562;2022-12-07T20:52:37;10.93;;;4.18;;
27999;SDS011;15328;50.860;10.562;2022-12-07T20:57:38;8.47;;;4.43;;
27999;SDS011;15328;50.860;10.562;2022-12-07T21:02:38;8.90;;;4.18;;
27999;SDS011;15328;50.860;10.562;2022-12-07T21:07:39;10.43;;;4.68;;
27999;SDS011;15328;50.860;10.562;2022-12-07T21:12:39;9.23;;;4.57;;
27999;SDS011;15328;50.860;10.562;2022-12-07T21:17:40;11.93;;;4.87;;
27999;SDS011;15328;50.860;10.562;2022-12-07T21:22:40;9.57;;;4.87;;
27999;SDS011;15328;50.860;10.562;2022-12-07T21:27:41;10.50;;;5.53;;
27999;SDS011;15328;50.860;10.562;2022-12-07T21:32:41;9.02;;;4.72;;
27999;SDS011;15328;50.860;10.562;2022-12-07T21:37:41;8.77;;;4.50;;
27999;SDS011;15328;50.860;10.562;2022-12-07T21:42:42;5.55;;;3.58;;
27999;SDS011;15328;50.860;10.562;2022-12-07T21:47:43;6.82;;;3.97;;
27999;SDS011;15328;50.860;10.562;2022-12-07T21:52:44;8.33;;;4.10;;
27999;SDS011;15328;50.860;10.562;2022-12-07T21:57:44;9.27;;;3.80;;
27999;SDS011;15328;50.860;10.562;2022-12-07T22:02:44;9.38;;;3.72;;
27999;SDS011;15328;50.860;10.562;2022-12-07T22:07:44;9.57;;;3.70;;
27999;SDS011;15328;50.860;10.562;2022-12-07T22:12:45;8.67;;;3.97;;
27999;SDS011;15328;50.860;10.562;2022-12-07T22:17:45;8.93;;;3.58;;
27999;SDS011;15328;50.860;10.562;2022-12-07T22:22:45;5.70;;;3.38;;
27999;SDS011;15328;50.860;10.562;2022-12-07T22:27:46;7.07;;;3.80;;
27999;SDS011;15328;50.860;10.562;2022-12-07T22:32:46;6.27;;;3.53;;
27999;SDS011;15328;50.860;10.562;2022-12-07T22:37:46;7.38;;;3.63;;
27999;SDS011;15328;50.860;10.562;2022-12-07T22:42:47;8.47;;;3.67;;
27999;SDS011;15328;50.860;10.562;2022-12-07T22:47:47;6.68;;;3.08;;
27999;SDS011;15328;50.860;10.562;2022-12-07T22:52:47;7.22;;;3.55;;
27999;SDS011;15328;50.860;10.562;2022-12-07T22:57:48;7.93;;;3.50;;
27999;SDS011;15328;50.860;10.562;2022-12-07T23:02:48;6.68;;;3.47;;
27999;SDS011;15328;50.860;10.562;2022-12-07T23:07:48;7.10;;;3.10;;
27999;SDS011;15328;50.860;10.562;2022-12-07T23:12:48;7.05;;;3.08;;
27999;SDS011;15328;50.860;10.562;2022-12-07T23:18:07;6.47;;;2.85;;
27999;SDS011;15328;50.860;10.562;2022-12-07T23:23:08;6.93;;;3.27;;
27999;SDS011;15328;50.860;10.562;2022-12-07T23:28:08;9.15;;;3.33;;
27999;SDS011;15328;50.860;10.562;2022-12-07T23:33:09;7.18;;;3.50;;
27999;SDS011;15328;50.860;10.562;2022-12-07T23:38:09;7.38;;;3.60;;
27999;SDS011;15328;50.860;10.562;2022-12-07T23:43:09;6.75;;;3.70;;
27999;SDS011;15328;50.860;10.562;2022-12-07T23:48:09;7.75;;;3.90;;
27999;SDS011;15328;50.860;10.562;2022-12-07T23:53:10;7.43;;;3.85;;
27999;SDS011;15328;50.860;10.562;2022-12-07T23:58:10;6.30;;;3.92;;
